KFCS/FCS METAR and TAF weather

Enter ICAO airport designator
Station Type Date Time Source
KFCS METAR 2020/06/01 15:58 UTC NOAA

KFCS 011558Z AUTO 00000KT 10SM CLR 25/06 A3016 RMK AO2 SLP150 T02460059 $


Station Type Date Time Source
KFCS Decoded METAR 2020/06/01 15:58 UTC NOAA

Fort Carson, CO, United States (KFCS) 38-42N 104-46W 1789M
Jun 01, 2020 - 11:58 AM EDT / 2020.06.01 1558 UTC
Wind: Calm:0
Visibility: 10 mile(s):0
Sky conditions: clear
Temperature: 76.3 F (24.6 C)
Dew Point: 42.6 F (5.9 C)
Relative Humidity: 30%
Pressure (altimeter): 30.16 in. Hg (1021 hPa)
ob: KFCS 011558Z AUTO 00000KT 10SM CLR 25/06 A3016 RMK AO2 SLP150 T02460059
cycle: 16

Station Type Date Time Source
KFCS TAF 2020/06/01 13:06 UTC NOAA

TAF KFCS 011301Z 0113/0219 34009KT 9999 BKN110 QNH3013INS
BECMG 0119/0120 17009KT 9999 VCSH BKN110 QNH3012INS
BECMG 0122/0123 17009KT 8000 -SHRA BKN110 QNH3009INS
TEMPO 0123/0205 VRB20G35KT 6000 -TSRA BKN110CB
BECMG 0207/0208 VRB06KT 9999 NSW BKN160 QNH3011INS
BECMG 0216/0217 17009KT 9999 VCSH BKN110 QNH3016INS TX29/0118Z TN13/0212Z

Example: see airport list